الصفحة الرئيسية
METAR-TAF:

METAR-TAF

مطار :

Santa Maria di Leuca

كاسترينيانو دل كابو, إيطاليا

دائرة عرض: 39-49N, خط طول: 018-21E, ارتفاع: 104 متر

مراقبة الطقس الحالي

تاريخ ووقت الإصدار 1ساعة و 45 دقيقة قبل الساعة 17:55UTC
ريح 5 عقدة من الجنوب
درجة الحرارة 12°درجة مئوية
الرطوبة 82%
ضغط 1022 hPa
الرؤية 10 كم أو أكثر
الغيوم لا تقل 1500 م ولا وجود لمزنة ركامية السحاب الأسود

METAR: LIBY 041755Z 19005KT CAVOK 12/09 Q1022 RMK SKC QUK / QUL / VIS MAR 10 KM VIS MIN 9999

زمن: 20:40 (19:40 UTC)


TAF: مفقودة

أرصاد الطقس والتوقعات من أكثر من 4000 مطار (تقارير الطقس للمطار METAR والتنبؤ بالطقس بالمطارTAF).

المحطات المتاحة هي النقط الصفراء والحمراء على الخريطة.

حرك المؤشر فوق النقطة لمعرفة اسم المحطة.

ثم انقر لمعرفة أرصاد وتوقعات الطقس.

لتغيير الخارطة: اضغط على الأزرار الخضراء مع رمز الصليب الأسود للتكبير. على الزر الأخضر مع شرطة للتصغير، أو على الأسهم الخضراء للخرائط المجاورة.


METAR-TAF: